Time;durP1;ratioP1;P1;durP2;ratioP2;P2;SDS_P1;SDS_P2;PMS_P1;PMS_P2;Temp;Humidity;BMP_temperature;BMP_pressure;BME280_temperature;BME280_humidity;BME280_pressure;Samples;Min_cycle;Max_cycle;Signal;HPM_P1;HPM_P2
2020/12/03 00:00:48;;;;;;;43.00;23.20;;;0.50;99.90;;;;;;5035700;28;20420;-84
2020/12/03 00:03:19;;;;;;;36.40;23.27;;;0.60;99.90;;;;;;5034539;28;20922;-85
2020/12/03 00:05:52;;;;;;;39.40;22.47;;;0.50;99.90;;;;;;5034945;28;20481;-84
2020/12/03 00:08:17;;;;;;;34.10;22.07;;;0.70;99.90;;;;;;5036553;28;20423;-84
2020/12/03 00:10:43;;;;;;;40.80;23.80;;;0.80;99.90;;;;;;5035442;28;20530;-84
2020/12/03 00:13:14;;;;;;;38.73;22.23;;;1.00;99.90;;;;;;5035153;28;20184;-84
2020/12/03 00:15:40;;;;;;;46.20;24.53;;;0.90;99.90;;;;;;5035074;28;20679;-83
2020/12/03 00:18:06;;;;;;;37.70;23.33;;;0.90;99.90;;;;;;5036354;28;20423;-84
2020/12/03 00:20:32;;;;;;;44.50;26.77;;;0.60;99.90;;;;;;5034824;28;20416;-83
2020/12/03 00:22:58;;;;;;;53.30;31.03;;;0.50;99.90;;;;;;5036101;28;20469;-84
2020/12/03 00:25:24;;;;;;;51.13;26.90;;;0.70;99.90;;;;;;5035170;28;20424;-84
2020/12/03 00:27:53;;;;;;;50.73;29.23;;;0.50;99.90;;;;;;5034071;28;20176;-84
2020/12/03 00:30:19;;;;;;;41.40;26.43;;;0.80;99.90;;;;;;5034802;28;20482;-84
2020/12/03 00:32:47;;;;;;;40.67;24.37;;;0.40;99.90;;;;;;5034169;28;20499;-85
2020/12/03 00:35:13;;;;;;;50.10;30.23;;;0.80;99.90;;;;;;5033811;28;20477;-84
2020/12/03 00:37:40;;;;;;;50.00;28.17;;;0.80;99.90;;;;;;5033808;28;20411;-84
2020/12/03 00:40:06;;;;;;;48.07;26.80;;;0.40;99.90;;;;;;5033981;28;20497;-85
2020/12/03 00:42:32;;;;;;;49.47;25.43;;;0.80;99.90;;;;;;5033865;28;20818;-84
2020/12/03 00:44:57;;;;;;;44.00;24.87;;;0.80;99.90;;;;;;5033794;28;20176;-85
2020/12/03 00:47:23;;;;;;;44.20;23.47;;;0.90;99.90;;;;;;5033987;28;20181;-85
2020/12/03 00:49:48;;;;;;;45.80;26.17;;;0.60;99.90;;;;;;5035033;28;20540;-84
2020/12/03 00:52:14;;;;;;;42.70;24.20;;;0.40;99.90;;;;;;5034321;28;20176;-84
2020/12/03 00:54:41;;;;;;;43.57;23.23;;;0.70;99.90;;;;;;5033935;28;20208;-85
2020/12/03 00:57:07;;;;;;;44.17;21.60;;;0.50;99.90;;;;;;5033651;28;20224;-84
2020/12/03 00:59:36;;;;;;;50.27;23.90;;;1.00;99.90;;;;;;5035504;28;20929;-84
2020/12/03 01:02:09;;;;;;;41.00;23.43;;;0.60;99.90;;;;;;5034040;28;20419;-84
2020/12/03 01:04:35;;;;;;;41.40;24.63;;;0.60;99.90;;;;;;5033602;28;20428;-84
2020/12/03 01:07:01;;;;;;;47.30;22.40;;;0.50;99.90;;;;;;5035884;28;20480;-84
2020/12/03 01:09:26;;;;;;;46.30;21.37;;;0.80;99.90;;;;;;5034005;28;20187;-85
2020/12/03 01:11:52;;;;;;;33.57;21.00;;;0.40;99.90;;;;;;5033604;28;20168;-84
2020/12/03 01:14:18;;;;;;;39.50;22.57;;;0.80;99.90;;;;;;5034542;28;20280;-84
2020/12/03 01:16:45;;;;;;;41.80;23.30;;;0.40;99.90;;;;;;5034075;28;20172;-84
2020/12/03 01:19:11;;;;;;;36.67;22.10;;;0.70;99.90;;;;;;5034192;28;20165;-85
2020/12/03 01:21:36;;;;;;;38.83;21.73;;;0.70;99.90;;;;;;5033844;28;20890;-83
2020/12/03 01:24:02;;;;;;;37.87;23.30;;;0.50;99.90;;;;;;5033440;28;20184;-84
2020/12/03 01:26:28;;;;;;;40.03;23.93;;;0.60;99.90;;;;;;5035320;28;20172;-84
2020/12/03 01:28:53;;;;;;;44.73;23.43;;;0.80;99.90;;;;;;5033297;28;20544;-84
2020/12/03 01:31:19;;;;;;;44.60;26.70;;;0.70;99.90;;;;;;5033066;28;20177;-84
2020/12/03 01:33:44;;;;;;;39.07;21.70;;;1.00;99.90;;;;;;5033540;28;20207;-85
2020/12/03 01:36:13;;;;;;;40.97;23.10;;;0.60;99.90;;;;;;5033972;28;20181;-84
2020/12/03 01:38:39;;;;;;;40.20;21.77;;;0.70;99.90;;;;;;5033922;28;20551;-84
2020/12/03 01:41:05;;;;;;;39.90;24.07;;;0.90;99.90;;;;;;5033407;28;21006;-84
2020/12/03 01:43:31;;;;;;;34.70;21.30;;;0.50;99.90;;;;;;5032896;28;20514;-84
2020/12/03 01:45:59;;;;;;;39.43;25.00;;;0.60;99.90;;;;;;5033112;28;20780;-84
2020/12/03 01:48:28;;;;;;;34.10;20.30;;;1.00;99.90;;;;;;5033788;28;20423;-83
2020/12/03 01:50:54;;;;;;;34.07;21.60;;;0.60;99.90;;;;;;5032628;28;20422;-84
2020/12/03 01:53:20;;;;;;;32.77;21.97;;;1.00;99.90;;;;;;5033890;28;20441;-83
2020/12/03 01:55:48;;;;;;;36.60;24.50;;;1.10;99.90;;;;;;5034102;28;20552;-84
2020/12/03 01:58:42;;;;;;;32.87;20.13;;;1.00;99.90;;;;;;5032419;28;20474;-83
2020/12/03 02:01:09;;;;;;;33.07;21.60;;;0.70;99.90;;;;;;5030305;28;20434;-84
2020/12/03 02:03:45;;;;;;;30.77;21.60;;;0.70;99.90;;;;;;5032532;28;20430;-84
2020/12/03 02:06:11;;;;;;;35.07;21.60;;;0.70;99.90;;;;;;5032720;28;20496;-83
2020/12/03 02:08:36;;;;;;;31.53;19.67;;;0.60;99.90;;;;;;5032327;28;20435;-84
2020/12/03 02:11:02;;;;;;;36.37;21.90;;;0.60;99.90;;;;;;5031991;28;20929;-84
2020/12/03 02:13:27;;;;;;;32.00;20.47;;;1.20;99.90;;;;;;5033386;28;20177;-84
2020/12/03 02:15:53;;;;;;;28.90;19.10;;;0.70;99.90;;;;;;5032544;28;20220;-84
2020/12/03 02:18:18;;;;;;;30.20;18.87;;;0.70;99.90;;;;;;5033919;28;20175;-84
2020/12/03 02:20:44;;;;;;;34.40;20.07;;;0.80;99.90;;;;;;5032600;28;20172;-84
2020/12/03 02:23:12;;;;;;;32.23;21.10;;;0.60;99.90;;;;;;5033895;28;20183;-84
2020/12/03 02:25:38;;;;;;;35.27;21.83;;;0.70;99.90;;;;;;5032776;28;20271;-84
2020/12/03 02:28:04;;;;;;;35.50;21.63;;;0.70;99.90;;;;;;5034294;28;20947;-85
2020/12/03 02:30:30;;;;;;;36.57;22.27;;;1.10;99.90;;;;;;5036099;28;20180;-84
2020/12/03 02:32:55;;;;;;;29.60;19.90;;;0.70;99.90;;;;;;5035677;28;20514;-83
2020/12/03 02:35:21;;;;;;;35.17;22.80;;;0.60;99.90;;;;;;5035806;28;20220;-84
2020/12/03 02:37:46;;;;;;;37.53;21.60;;;0.70;99.90;;;;;;5036189;28;20181;-84
2020/12/03 02:40:12;;;;;;;36.33;21.10;;;1.00;99.90;;;;;;5035576;28;20181;-84
2020/12/03 02:42:38;;;;;;;34.97;22.03;;;1.10;99.90;;;;;;5036106;28;20177;-84
2020/12/03 02:45:05;;;;;;;38.57;22.37;;;0.80;99.90;;;;;;5036189;28;20207;-85
2020/12/03 02:47:30;;;;;;;29.97;20.10;;;1.00;99.90;;;;;;5035586;28;20502;-84
2020/12/03 02:49:56;;;;;;;42.63;22.90;;;0.60;99.90;;;;;;5035475;28;20451;-84
2020/12/03 02:52:24;;;;;;;36.90;21.60;;;0.70;99.90;;;;;;5036084;28;20181;-83
2020/12/03 02:54:51;;;;;;;37.13;22.00;;;0.70;99.90;;;;;;5035910;28;20219;-84
2020/12/03 02:57:17;;;;;;;36.47;20.57;;;0.90;99.90;;;;;;5035969;28;20609;-84
2020/12/03 02:59:43;;;;;;;34.00;21.20;;;0.80;99.90;;;;;;5035801;28;20428;-84
2020/12/03 03:02:09;;;;;;;40.17;21.63;;;0.80;99.90;;;;;;5036831;28;20461;-84
2020/12/03 03:04:35;;;;;;;37.63;23.70;;;1.20;99.90;;;;;;5037643;28;20173;-84
2020/12/03 03:07:01;;;;;;;44.10;22.27;;;0.70;99.90;;;;;;5037849;28;20179;-84
2020/12/03 03:09:27;;;;;;;37.37;22.70;;;0.90;99.90;;;;;;5035224;28;20427;-84
2020/12/03 03:11:52;;;;;;;32.87;21.43;;;0.70;99.90;;;;;;5035404;28;20222;-84
2020/12/03 03:14:19;;;;;;;40.63;22.20;;;1.10;99.90;;;;;;5035302;28;20254;-84
2020/12/03 03:16:46;;;;;;;37.20;23.33;;;0.80;99.90;;;;;;5035846;28;20177;-84
2020/12/03 03:19:11;;;;;;;41.63;25.20;;;1.20;99.90;;;;;;5035495;28;20514;-84
2020/12/03 03:21:37;;;;;;;33.33;21.00;;;0.80;99.90;;;;;;5035093;28;20842;-84
2020/12/03 03:24:03;;;;;;;36.20;22.80;;;0.80;99.90;;;;;;5035290;28;20230;-84
2020/12/03 03:26:28;;;;;;;38.87;21.60;;;1.20;99.90;;;;;;5035116;28;20181;-84
2020/12/03 03:28:54;;;;;;;36.73;21.27;;;0.90;99.90;;;;;;5035365;28;20522;-85
2020/12/03 03:31:20;;;;;;;39.93;21.10;;;0.80;99.90;;;;;;5035306;28;20287;-84
2020/12/03 03:33:47;;;;;;;36.27;21.50;;;0.80;99.90;;;;;;5034716;28;20177;-84
2020/12/03 03:36:13;;;;;;;41.33;21.70;;;0.70;99.90;;;;;;5034881;28;20434;-84
2020/12/03 03:38:39;;;;;;;36.40;21.57;;;1.00;99.90;;;;;;5035957;28;20430;-84
2020/12/03 03:41:05;;;;;;;35.57;21.63;;;1.20;99.90;;;;;;5034118;28;20427;-84
2020/12/03 03:43:31;;;;;;;40.67;20.83;;;1.30;99.90;;;;;;5034844;28;20387;-85
2020/12/03 03:45:56;;;;;;;39.70;25.63;;;0.90;99.90;;;;;;5034810;28;20451;-85
2020/12/03 03:48:22;;;;;;;44.93;24.03;;;1.00;99.90;;;;;;5034574;28;20256;-84
2020/12/03 03:50:48;;;;;;;35.47;24.20;;;0.80;99.90;;;;;;5035129;28;20617;-85
2020/12/03 03:53:14;;;;;;;40.17;21.73;;;1.20;99.90;;;;;;5035949;28;20208;-84
2020/12/03 03:55:39;;;;;;;32.93;21.40;;;1.20;99.90;;;;;;5034528;28;20742;-85
2020/12/03 03:58:08;;;;;;;36.90;22.67;;;0.70;99.90;;;;;;5034813;28;20463;-84
2020/12/03 04:00:44;;;;;;;39.17;23.20;;;1.10;99.90;;;;;;5034649;28;20187;-84
2020/12/03 04:03:13;;;;;;;35.73;21.10;;;0.80;99.90;;;;;;5034771;28;20411;-84
2020/12/03 04:05:40;;;;;;;32.33;20.33;;;1.10;99.90;;;;;;5034868;28;20482;-84
2020/12/03 04:08:05;;;;;;;39.90;22.53;;;0.80;99.90;;;;;;5034114;28;20427;-84
2020/12/03 04:10:31;;;;;;;38.30;22.10;;;0.80;99.90;;;;;;5033935;28;20436;-84
2020/12/03 04:12:56;;;;;;;40.17;23.47;;;1.00;99.90;;;;;;5033680;28;20191;-83
2020/12/03 04:15:22;;;;;;;34.17;21.43;;;1.10;99.90;;;;;;5033930;28;20212;-84
2020/12/03 04:17:47;;;;;;;34.10;22.20;;;1.10;99.90;;;;;;5034100;28;20254;-84
2020/12/03 04:20:15;;;;;;;37.00;21.83;;;0.90;99.90;;;;;;5033894;28;20187;-84
2020/12/03 04:22:42;;;;;;;34.27;21.17;;;1.30;99.90;;;;;;5033709;28;20241;-85
2020/12/03 04:25:07;;;;;;;36.10;20.23;;;0.80;99.90;;;;;;5035014;28;20486;-84
2020/12/03 04:27:33;;;;;;;40.40;22.10;;;1.10;99.90;;;;;;5033715;28;20415;-84
2020/12/03 04:29:58;;;;;;;38.57;20.63;;;0.80;99.90;;;;;;5034040;28;20184;-84
2020/12/03 04:32:24;;;;;;;33.57;21.73;;;0.70;99.90;;;;;;5036071;28;20178;-83
2020/12/03 04:34:49;;;;;;;31.00;19.70;;;0.90;99.90;;;;;;5034568;28;20691;-82
2020/12/03 04:37:15;;;;;;;37.67;21.87;;;0.80;99.90;;;;;;5034682;28;20616;-84
2020/12/03 04:39:41;;;;;;;32.20;20.47;;;0.90;99.90;;;;;;5033198;28;20536;-84
2020/12/03 04:42:34;;;;;;;35.93;22.13;;;1.20;99.90;;;;;;5033502;28;20177;-84
2020/12/03 04:45:22;;;;;;;30.03;19.33;;;1.20;99.90;;;;;;5030285;28;20180;-85
2020/12/03 04:48:15;;;;;;;50.00;25.80;;;0.80;99.90;;;;;;5002486;28;20434;-82
2020/12/03 04:50:53;;;;;;;37.67;21.77;;;1.40;99.90;;;;;;5033446;28;20423;-83
2020/12/03 04:53:41;;;;;;;51.23;29.13;;;1.30;99.90;;;;;;5033832;28;20763;-82
2020/12/03 04:56:15;;;;;;;66.27;39.13;;;1.30;99.90;;;;;;5034798;28;20970;-84
2020/12/03 04:58:59;;;;;;;62.17;32.40;;;1.00;99.90;;;;;;5033737;28;20423;-83
2020/12/03 05:01:53;;;;;;;56.50;35.40;;;1.10;99.90;;;;;;5034725;28;20502;-84
2020/12/03 05:04:47;;;;;;;35.10;23.93;;;1.40;99.90;;;;;;5035940;28;20428;-83
2020/12/03 05:07:13;;;;;;;27.90;20.93;;;1.50;99.90;;;;;;5033424;28;20434;-83
2020/12/03 05:09:51;;;;;;;30.23;21.77;;;1.10;99.90;;;;;;5033686;28;20424;-83
2020/12/03 05:12:28;;;;;;;28.77;20.20;;;1.10;99.90;;;;;;5033361;28;20412;-82
2020/12/03 05:15:06;;;;;;;27.70;19.40;;;1.10;99.90;;;;;;5033508;28;20873;-85
2020/12/03 05:17:51;;;;;;;29.53;18.97;;;1.00;99.90;;;;;;5034132;28;20459;-83
2020/12/03 05:20:36;;;;;;;29.43;19.77;;;1.50;99.90;;;;;;5035513;28;20458;-83
2020/12/03 05:23:12;;;;;;;29.27;21.80;;;1.30;99.90;;;;;;5034725;28;20431;-83
2020/12/03 05:25:38;;;;;;;24.70;16.83;;;1.40;99.90;;;;;;5036460;28;20422;-84
2020/12/03 05:28:22;;;;;;;27.83;17.10;;;1.40;99.90;;;;;;5034191;28;20423;-83
2020/12/03 05:30:55;;;;;;;27.47;16.60;;;1.40;99.90;;;;;;5035175;28;20192;-83
2020/12/03 05:33:22;;;;;;;22.80;15.17;;;1.10;99.90;;;;;;5036633;28;20423;-85
2020/12/03 05:35:48;;;;;;;26.03;17.37;;;1.10;99.90;;;;;;5036041;28;20471;-82
2020/12/03 05:38:19;;;;;;;22.80;15.60;;;1.30;99.90;;;;;;5037514;28;20547;-82
2020/12/03 05:40:53;;;;;;;21.37;15.37;;;1.30;99.90;;;;;;5034121;28;20534;-83
2020/12/03 05:43:20;;;;;;;22.00;16.03;;;1.70;99.90;;;;;;5034434;28;20763;-82
2020/12/03 05:45:46;;;;;;;23.07;16.43;;;1.60;99.90;;;;;;5036068;28;20439;-86
2020/12/03 05:48:17;;;;;;;23.00;15.67;;;1.60;99.90;;;;;;5037568;28;20419;-82
2020/12/03 05:50:43;;;;;;;22.50;14.63;;;1.50;99.90;;;;;;5036778;28;20566;-83
2020/12/03 05:53:17;;;;;;;18.80;13.17;;;1.20;99.90;;;;;;5034875;28;20443;-84
2020/12/03 05:55:43;;;;;;;19.53;13.47;;;1.60;99.90;;;;;;5035721;28;20243;-83
2020/12/03 05:58:22;;;;;;;17.70;11.93;;;1.60;99.90;;;;;;5037388;28;20455;-83
2020/12/03 06:00:50;;;;;;;13.43;11.27;;;1.70;99.90;;;;;;5033199;28;20431;-84
2020/12/03 06:03:46;;;;;;;12.80;8.17;;;1.20;99.90;;;;;;5032345;28;20450;-82
2020/12/03 06:06:36;;;;;;;16.13;11.50;;;1.90;99.90;;;;;;5036841;28;20416;-83
2020/12/03 06:09:34;;;;;;;15.10;10.97;;;2.00;99.90;;;;;;5023091;28;20477;-81
2020/12/03 06:12:25;;;;;;;17.40;12.40;;;1.70;99.90;;;;;;5035149;28;20428;-81
2020/12/03 06:15:29;;;;;;;14.47;10.30;;;1.80;99.90;;;;;;5034075;28;20547;-82
2020/12/03 06:18:01;;;;;;;15.70;11.60;;;1.90;99.90;;;;;;5032568;28;20415;-83
2020/12/03 06:20:33;;;;;;;12.97;10.63;;;1.80;99.90;;;;;;5036531;28;20465;-83
2020/12/03 06:23:35;;;;;;;11.73;10.07;;;1.70;99.90;;;;;;5052570;28;20486;-83
2020/12/03 06:26:43;;;;;;;9.80;6.57;;;1.60;99.90;;;;;;5043095;28;20429;-87
2020/12/03 06:29:37;;;;;;;14.33;10.40;;;1.80;99.90;;;;;;5028373;28;20494;-84
2020/12/03 06:32:28;;;;;;;13.37;9.10;;;2.00;99.90;;;;;;5015339;28;20416;-85
2020/12/03 06:35:08;;;;;;;11.37;8.93;;;2.00;99.90;;;;;;5031043;28;20477;-84
2020/12/03 06:37:52;;;;;;;10.60;8.80;;;1.50;99.90;;;;;;5035841;28;20420;-86
2020/12/03 06:40:33;;;;;;;9.33;7.60;;;1.50;99.90;;;;;;5042424;28;20438;-82
2020/12/03 06:43:26;;;;;;;11.87;8.27;;;1.50;99.90;;;;;;5055934;28;20410;-83
2020/12/03 06:46:13;;;;;;;11.67;8.80;;;1.90;99.90;;;;;;5060076;28;20437;-85
2020/12/03 06:49:14;;;;;;;9.93;7.43;;;2.00;99.90;;;;;;5057136;28;20928;-86
2020/12/03 06:52:17;;;;;;;10.40;7.93;;;2.00;99.90;;;;;;5055179;28;20453;-85
2020/12/03 06:55:15;;;;;;;9.80;7.90;;;2.00;99.90;;;;;;5056531;28;20442;-84
2020/12/03 06:58:18;;;;;;;8.53;7.63;;;2.00;99.90;;;;;;5047271;28;20974;-83
2020/12/03 07:01:27;;;;;;;8.00;6.97;;;1.90;99.90;;;;;;5055956;28;20933;-84
2020/12/03 07:04:31;;;;;;;37.10;22.07;;;1.90;99.90;;;;;;5036935;28;20435;-85
2020/12/03 07:07:34;;;;;;;30.43;20.97;;;1.90;99.90;;;;;;5043614;28;20454;-83
2020/12/03 07:10:18;;;;;;;9.43;7.80;;;1.90;99.90;;;;;;5038193;28;20419;-86
2020/12/03 07:13:25;;;;;;;8.83;8.03;;;1.80;99.90;;;;;;5036206;28;20408;-83
2020/12/03 07:16:34;;;;;;;12.47;8.97;;;1.70;99.90;;;;;;4958670;28;20477;-81
2020/12/03 07:19:24;;;;;;;10.90;7.30;;;1.40;99.90;;;;;;4958130;28;20433;-84
2020/12/03 07:22:04;;;;;;;11.77;9.00;;;1.80;99.90;;;;;;5035046;28;20461;-83
2020/12/03 07:24:32;;;;;;;11.07;9.10;;;1.80;99.90;;;;;;5039620;28;20419;-84
2020/12/03 07:27:48;;;;;;;12.97;9.43;;;2.10;99.90;;;;;;5037332;28;20767;-85
2020/12/03 07:30:25;;;;;;;11.13;10.00;;;1.90;99.90;;;;;;4997674;28;20425;-84
2020/12/03 07:33:10;;;;;;;11.70;9.63;;;1.80;99.90;;;;;;5028147;28;20424;-85
2020/12/03 07:35:48;;;;;;;8.80;7.67;;;1.90;99.90;;;;;;5035883;28;20467;-80
2020/12/03 07:38:35;;;;;;;10.07;8.50;;;1.90;99.90;;;;;;5036177;28;20432;-83
2020/12/03 07:41:02;;;;;;;9.53;8.13;;;1.50;99.90;;;;;;5038072;28;20403;-83
2020/12/03 07:43:38;;;;;;;12.27;8.87;;;1.90;99.90;;;;;;5035020;28;20408;-84
2020/12/03 07:46:23;;;;;;;9.53;8.60;;;1.60;99.90;;;;;;5036543;28;20445;-84
2020/12/03 07:48:49;;;;;;;11.37;9.40;;;1.90;99.90;;;;;;5036552;28;20419;-86
2020/12/03 07:51:17;;;;;;;10.70;8.40;;;1.70;99.90;;;;;;5036721;28;20415;-84
2020/12/03 07:53:43;;;;;;;11.77;9.50;;;2.00;99.90;;;;;;5038382;28;20644;-84
2020/12/03 07:56:24;;;;;;;12.17;8.40;;;1.70;99.90;;;;;;5035989;28;20467;-84
2020/12/03 07:58:50;;;;;;;11.43;8.43;;;2.10;99.90;;;;;;5036713;28;20423;-83
2020/12/03 08:01:28;;;;;;;12.40;8.57;;;1.70;99.90;;;;;;5035510;28;20423;-82
2020/12/03 08:03:58;;;;;;;10.30;8.37;;;2.20;99.90;;;;;;5035662;28;20419;-84
2020/12/03 08:06:27;;;;;;;10.37;8.37;;;1.70;99.90;;;;;;5036015;28;20427;-83
2020/12/03 08:09:04;;;;;;;10.30;8.43;;;1.80;99.90;;;;;;5035858;28;20473;-84
2020/12/03 08:11:42;;;;;;;9.43;7.57;;;1.80;99.90;;;;;;5036675;28;20814;-83
2020/12/03 08:14:29;;;;;;;9.80;8.80;;;1.80;99.90;;;;;;5037091;28;20891;-83
2020/12/03 08:16:56;;;;;;;13.40;8.40;;;2.50;99.90;;;;;;5037693;28;20431;-83
2020/12/03 08:19:31;;;;;;;8.50;7.63;;;2.40;99.90;;;;;;5034636;28;20455;-84
2020/12/03 08:21:58;;;;;;;9.57;8.00;;;2.40;99.90;;;;;;5035436;28;20422;-80
2020/12/03 08:24:26;;;;;;;10.80;8.27;;;2.00;99.90;;;;;;5035418;28;20411;-83
2020/12/03 08:27:15;;;;;;;8.90;6.73;;;2.40;99.90;;;;;;5035890;28;20424;-83
2020/12/03 08:29:40;;;;;;;9.60;7.40;;;2.40;99.90;;;;;;5027567;28;20435;-84
2020/12/03 08:32:06;;;;;;;8.63;7.00;;;2.50;99.90;;;;;;5034187;28;20775;-82
2020/12/03 08:34:35;;;;;;;6.77;5.97;;;2.50;99.90;;;;;;5035218;28;20205;-84
2020/12/03 08:37:08;;;;;;;7.70;6.47;;;2.20;99.90;;;;;;5035342;28;20244;-82
2020/12/03 08:39:35;;;;;;;7.07;5.53;;;2.60;99.90;;;;;;5033927;28;20415;-84
2020/12/03 08:42:01;;;;;;;8.03;6.80;;;2.20;99.90;;;;;;5035593;28;20451;-83
2020/12/03 08:44:28;;;;;;;6.60;5.83;;;2.40;99.90;;;;;;5039344;28;20454;-85
2020/12/03 08:46:58;;;;;;;8.50;6.97;;;2.60;99.90;;;;;;5034669;28;20520;-84
2020/12/03 08:49:24;;;;;;;9.23;8.27;;;2.30;99.90;;;;;;5035260;28;20443;-82
2020/12/03 08:51:51;;;;;;;6.87;6.13;;;2.60;99.90;;;;;;5035837;28;20434;-80
2020/12/03 08:54:28;;;;;;;7.43;6.20;;;2.40;99.90;;;;;;5034693;28;20246;-84
2020/12/03 08:56:57;;;;;;;13.63;12.43;;;2.20;99.90;;;;;;5033081;28;20471;-83
2020/12/03 08:59:47;;;;;;;9.00;8.10;;;2.60;99.90;;;;;;5034215;28;20443;-88
2020/12/03 09:02:17;;;;;;;6.63;6.03;;;2.70;99.90;;;;;;5032885;28;20430;-83
2020/12/03 09:04:55;;;;;;;10.77;9.63;;;2.70;99.90;;;;;;5033597;28;20419;-80
2020/12/03 09:07:31;;;;;;;11.23;9.50;;;2.30;99.90;;;;;;5033317;28;20408;-84
2020/12/03 09:09:58;;;;;;;8.60;7.10;;;2.70;99.90;;;;;;5033045;28;20458;-84
2020/12/03 09:12:28;;;;;;;8.20;7.27;;;2.40;99.90;;;;;;5033304;28;20416;-85
2020/12/03 09:14:56;;;;;;;24.70;15.67;;;2.80;99.90;;;;;;5032192;28;20561;-83
2020/12/03 09:17:25;;;;;;;9.87;7.30;;;2.90;99.90;;;;;;5034003;28;20414;-87
2020/12/03 09:19:52;;;;;;;10.90;6.77;;;2.60;99.90;;;;;;5033494;28;20435;-83
2020/12/03 09:22:21;;;;;;;11.50;8.27;;;2.60;99.90;;;;;;5032705;28;20502;-84
2020/12/03 09:24:50;;;;;;;10.97;8.90;;;2.70;99.90;;;;;;5032813;28;20431;-82
2020/12/03 09:27:16;;;;;;;7.70;6.70;;;2.50;99.90;;;;;;5032611;28;20423;-84
2020/12/03 09:29:52;;;;;;;9.90;8.27;;;2.90;99.90;;;;;;5032107;28;20454;-84
2020/12/03 09:32:22;;;;;;;9.90;8.57;;;2.70;99.90;;;;;;5032186;28;20506;-83
2020/12/03 09:34:51;;;;;;;12.97;10.33;;;3.00;99.90;;;;;;5032053;28;20490;-83
2020/12/03 09:37:17;;;;;;;16.87;9.30;;;2.90;99.90;;;;;;5034161;28;20776;-82
2020/12/03 09:39:43;;;;;;;14.20;9.57;;;3.00;99.90;;;;;;5039708;28;20419;-86
2020/12/03 09:42:14;;;;;;;11.53;9.17;;;2.50;99.90;;;;;;5037010;28;20643;-83
2020/12/03 09:44:42;;;;;;;12.57;10.30;;;2.90;99.90;;;;;;5036711;28;20453;-83
2020/12/03 09:47:15;;;;;;;10.40;8.20;;;2.60;99.90;;;;;;5037490;28;20443;-83
2020/12/03 09:49:43;;;;;;;12.30;9.43;;;2.60;99.90;;;;;;5036368;28;20423;-86
2020/12/03 09:52:10;;;;;;;14.70;9.43;;;2.50;99.90;;;;;;5036501;28;20922;-84
2020/12/03 09:54:37;;;;;;;13.53;9.87;;;2.60;99.90;;;;;;5037880;28;20451;-82
2020/12/03 09:57:05;;;;;;;14.50;8.90;;;3.10;99.90;;;;;;5036391;28;20498;-86
2020/12/03 09:59:31;;;;;;;10.37;8.83;;;3.30;99.90;;;;;;5040478;28;20416;-89
2020/12/03 10:02:00;;;;;;;16.30;11.53;;;3.30;99.90;;;;;;5040796;28;20419;-82
2020/12/03 10:04:42;;;;;;;34.97;31.37;;;3.00;99.90;;;;;;5040730;28;20427;-84
2020/12/03 10:07:13;;;;;;;70.07;44.93;;;3.50;99.90;;;;;;5038604;28;20419;-85
2020/12/03 10:10:07;;;;;;;21.53;9.70;;;3.60;99.90;;;;;;5036485;28;20431;-85
2020/12/03 10:13:02;;;;;;;12.80;8.70;;;3.50;99.90;;;;;;5040384;28;20419;-86
2020/12/03 10:15:49;;;;;;;18.87;8.47;;;3.40;99.90;;;;;;5010281;28;20486;-84
2020/12/03 10:18:45;;;;;;;24.57;10.03;;;3.30;99.90;;;;;;5032270;28;20780;-83
2020/12/03 10:21:15;;;;;;;18.83;12.70;;;3.50;99.90;;;;;;5036534;28;20520;-81
2020/12/03 10:23:47;;;;;;;22.93;15.30;;;3.80;99.90;;;;;;5035408;28;20426;-82
2020/12/03 10:26:38;;;;;;;125.30;75.10;;;3.70;99.90;;;;;;5034481;28;20434;-84
2020/12/03 10:29:12;;;;;;;83.50;55.03;;;3.60;99.90;;;;;;5030178;28;20426;-84
2020/12/03 10:31:38;;;;;;;24.07;11.40;;;3.80;99.90;;;;;;5035089;28;20431;-85
2020/12/03 10:34:04;;;;;;;29.30;23.20;;;3.50;99.90;;;;;;5036532;28;20617;-83
2020/12/03 10:36:36;;;;;;;14.60;11.93;;;3.70;99.90;;;;;;5047828;28;20433;-83
2020/12/03 10:39:02;;;;;;;10.30;9.17;;;3.40;99.90;;;;;;5050095;28;20412;-82
2020/12/03 10:41:33;;;;;;;18.53;8.80;;;3.90;99.90;;;;;;5033546;28;20489;-84
2020/12/03 10:44:02;;;;;;;9.67;8.17;;;3.10;99.90;;;;;;5034303;28;20423;-84
2020/12/03 10:46:30;;;;;;;15.57;9.40;;;3.20;99.90;;;;;;5035453;28;20467;-81
2020/12/03 10:48:59;;;;;;;10.30;6.10;;;3.20;99.90;;;;;;5034522;28;20412;-84
2020/12/03 10:51:24;;;;;;;19.83;9.77;;;3.40;99.90;;;;;;5034540;28;20593;-84
2020/12/03 10:53:51;;;;;;;29.17;10.17;;;3.50;99.90;;;;;;5034030;28;20544;-83
2020/12/03 10:56:25;;;;;;;13.37;8.43;;;3.00;99.90;;;;;;5033535;28;20232;-83
2020/12/03 10:59:21;;;;;;;11.90;7.43;;;3.10;99.90;;;;;;5033916;28;20415;-84
2020/12/03 11:01:53;;;;;;;11.17;8.40;;;3.40;99.90;;;;;;5027541;28;20431;-85
2020/12/03 11:04:20;;;;;;;20.30;9.10;;;3.00;99.90;;;;;;5033508;28;20426;-84
2020/12/03 11:06:46;;;;;;;12.60;9.77;;;3.30;99.90;;;;;;5033133;28;20424;-82
2020/12/03 11:09:18;;;;;;;7.87;6.50;;;3.10;99.90;;;;;;5038420;28;20427;-85
2020/12/03 11:11:44;;;;;;;10.40;9.20;;;3.00;99.90;;;;;;5034965;28;20407;-79
2020/12/03 11:14:14;;;;;;;14.60;10.50;;;3.00;99.90;;;;;;5035163;28;20499;-83
2020/12/03 11:16:54;;;;;;;20.77;14.90;;;2.90;99.90;;;;;;5034746;28;20177;-85
2020/12/03 11:19:23;;;;;;;12.13;9.33;;;2.80;99.90;;;;;;5034190;28;20421;-83
2020/12/03 11:22:27;;;;;;;13.70;8.73;;;3.10;99.90;;;;;;5033341;28;20926;-84
2020/12/03 11:24:59;;;;;;;16.27;8.40;;;3.40;99.90;;;;;;5034027;28;20425;-82
2020/12/03 11:27:25;;;;;;;16.30;9.63;;;3.30;99.90;;;;;;5035293;28;20435;-84
2020/12/03 11:29:51;;;;;;;10.13;9.03;;;3.00;99.90;;;;;;5035416;28;20923;-84
2020/12/03 11:32:50;;;;;;;11.70;9.90;;;2.80;99.90;;;;;;5033405;28;20423;-84
2020/12/03 11:35:21;;;;;;;16.10;9.60;;;3.40;99.90;;;;;;5040830;28;20223;-84
2020/12/03 11:37:51;;;;;;;11.10;8.13;;;3.00;99.90;;;;;;5054857;28;20415;-82
2020/12/03 11:40:43;;;;;;;12.50;7.93;;;3.30;99.90;;;;;;5053259;28;20418;-84
2020/12/03 11:43:36;;;;;;;13.80;9.00;;;3.20;99.90;;;;;;5052896;28;20422;-83
2020/12/03 11:46:40;;;;;;;32.13;11.30;;;3.20;99.90;;;;;;5054342;28;20509;-84
2020/12/03 11:49:04;;;;;;;10.63;6.87;;;2.80;99.90;;;;;;5053568;28;20507;-84
2020/12/03 11:51:35;;;;;;;19.77;7.83;;;3.10;99.90;;;;;;5051955;28;20509;-84
2020/12/03 11:54:06;;;;;;;8.60;7.30;;;3.40;99.90;;;;;;5053719;28;20178;-84
2020/12/03 11:56:33;;;;;;;15.23;8.60;;;3.00;99.90;;;;;;5054182;28;20515;-84
2020/12/03 11:59:21;;;;;;;8.23;7.13;;;3.00;99.90;;;;;;5053110;28;20418;-79
2020/12/03 12:01:58;;;;;;;22.00;9.37;;;3.40;99.90;;;;;;5036541;28;20426;-82
2020/12/03 12:12:18;;;;;;;12.20;7.83;;;3.10;99.90;;;;;;5034405;28;20451;-81
2020/12/03 12:14:44;;;;;;;11.20;7.87;;;3.70;99.90;;;;;;5033954;28;20514;-82
2020/12/03 12:17:09;;;;;;;14.77;8.73;;;3.30;99.90;;;;;;5033926;28;20444;-84
2020/12/03 12:19:36;;;;;;;12.57;8.93;;;3.60;99.90;;;;;;5034484;28;20180;-81
2020/12/03 12:22:04;;;;;;;17.80;8.80;;;3.20;99.90;;;;;;5031720;28;20226;-82
2020/12/03 12:24:30;;;;;;;9.50;7.57;;;3.20;99.90;;;;;;5032814;28;20474;-83
2020/12/03 12:26:55;;;;;;;8.50;7.60;;;3.20;99.90;;;;;;5033444;28;20431;-83
2020/12/03 12:29:21;;;;;;;18.87;8.97;;;3.20;99.90;;;;;;5033628;28;20972;-82
2020/12/03 12:31:47;;;;;;;30.23;9.23;;;3.60;99.90;;;;;;5032940;28;20255;-84
2020/12/03 12:34:12;;;;;;;15.70;8.73;;;3.10;99.90;;;;;;5035220;28;20196;-80
2020/12/03 12:36:38;;;;;;;13.53;8.80;;;3.50;99.90;;;;;;5034070;28;20177;-83
2020/12/03 12:39:04;;;;;;;29.57;10.10;;;3.50;99.90;;;;;;5033117;28;20187;-84
2020/12/03 12:41:30;;;;;;;15.77;8.57;;;3.60;99.90;;;;;;5037278;28;20183;-86
2020/12/03 12:43:55;;;;;;;21.60;9.63;;;3.20;99.90;;;;;;5036653;28;20419;-83
2020/12/03 12:46:25;;;;;;;12.03;8.23;;;3.60;99.90;;;;;;5033578;28;20179;-83
2020/12/03 12:48:52;;;;;;;13.73;8.43;;;3.10;99.90;;;;;;5034337;28;20191;-82
2020/12/03 12:51:19;;;;;;;8.83;7.93;;;3.10;99.90;;;;;;5032736;28;20420;-83
2020/12/03 12:53:44;;;;;;;13.37;9.00;;;3.60;99.90;;;;;;5033268;28;20846;-80
2020/12/03 12:56:11;;;;;;;13.13;8.57;;;3.30;99.90;;;;;;5035113;28;20486;-83
2020/12/03 12:58:37;;;;;;;10.70;7.60;;;3.40;99.90;;;;;;5033777;28;20191;-81
2020/12/03 13:01:04;;;;;;;8.63;7.03;;;3.30;99.90;;;;;;5032931;28;20458;-83
2020/12/03 13:03:30;;;;;;;15.53;8.70;;;3.40;99.90;;;;;;5034035;28;20887;-84
2020/12/03 13:05:55;;;;;;;19.57;8.53;;;3.60;99.90;;;;;;5033423;28;20412;-84
2020/12/03 13:08:21;;;;;;;12.50;8.40;;;3.50;99.90;;;;;;5033193;28;20423;-87
2020/12/03 13:10:46;;;;;;;9.10;7.03;;;3.20;99.90;;;;;;5033019;28;20264;-81
2020/12/03 13:13:12;;;;;;;20.23;9.50;;;3.60;99.90;;;;;;5031814;28;20180;-84
2020/12/03 13:15:38;;;;;;;82.73;18.93;;;3.20;99.90;;;;;;5031833;28;20340;-79
2020/12/03 13:18:03;;;;;;;9.83;7.67;;;3.60;99.90;;;;;;5034114;28;20248;-84